createdAt,value
2019-04-25T00:01:58.709Z,100614.13
2019-04-25T00:04:32.346Z,100614.90
2019-04-25T00:07:03.106Z,100619.87
2019-04-25T00:09:35.571Z,100615.26
2019-04-25T00:12:07.107Z,100618.31
2019-04-25T00:14:38.119Z,100609.30
2019-04-25T00:17:09.172Z,100616.52
2019-04-25T00:19:41.790Z,100615.56
2019-04-25T00:22:14.055Z,100624.02
2019-04-25T00:24:49.520Z,100621.96
2019-04-25T00:27:21.614Z,100621.78
2019-04-25T00:29:57.661Z,100621.50
2019-04-25T00:32:28.250Z,100625.00
2019-04-25T00:35:01.903Z,100624.19
2019-04-25T00:37:32.796Z,100622.38
2019-04-25T00:40:03.994Z,100626.94
2019-04-25T00:42:38.938Z,100627.00
2019-04-25T00:45:09.600Z,100631.08
2019-04-25T00:47:42.442Z,100626.53
2019-04-25T00:50:12.667Z,100629.33
2019-04-25T00:52:43.907Z,100626.30
2019-04-25T00:55:26.057Z,100626.23
2019-04-25T00:57:49.563Z,100628.06
2019-04-25T01:00:38.117Z,100625.34
2019-04-25T01:03:11.528Z,100623.98
2019-04-25T01:05:44.351Z,100623.06
2019-04-25T01:08:15.470Z,100621.02
2019-04-25T01:10:48.718Z,100620.88
2019-04-25T01:13:19.303Z,100618.26
2019-04-25T01:15:52.194Z,100617.23
2019-04-25T01:18:23.221Z,100611.75
2019-04-25T01:20:55.415Z,100617.08
2019-04-25T01:23:26.154Z,100611.69
2019-04-25T01:25:56.847Z,100609.02
2019-04-25T01:28:27.670Z,100612.22
2019-04-25T01:30:59.075Z,100610.72
2019-04-25T01:33:29.761Z,100607.20
2019-04-25T01:36:03.556Z,100608.88
2019-04-25T01:38:38.895Z,100608.52
2019-04-25T01:41:11.112Z,100605.70
2019-04-25T01:43:57.199Z,100611.06
2019-04-25T01:46:26.366Z,100606.71
2019-04-25T01:48:58.719Z,100607.70
2019-04-25T01:51:33.893Z,100606.39
2019-04-25T01:54:04.613Z,100602.83
2019-04-25T01:56:35.370Z,100598.66
2019-04-25T01:59:06.379Z,100602.02
2019-04-25T02:01:38.438Z,100604.56
2019-04-25T02:04:09.180Z,100604.69
2019-04-25T02:06:41.015Z,100602.66
2019-04-25T02:09:13.659Z,100602.50
2019-04-25T02:11:45.979Z,100603.52
2019-04-25T02:14:16.847Z,100600.34
2019-04-25T02:16:50.538Z,100600.69
2019-04-25T02:19:21.584Z,100607.75
2019-04-25T02:21:54.498Z,100608.94
2019-04-25T02:24:24.670Z,100615.97
2019-04-25T02:26:57.262Z,100609.77
2019-04-25T02:29:27.967Z,100611.80
2019-04-25T02:32:02.164Z,100613.47
2019-04-25T02:34:31.101Z,100612.11
2019-04-25T02:37:05.598Z,100608.11
2019-04-25T02:39:37.239Z,100613.30
2019-04-25T02:42:08.627Z,100617.32
2019-04-25T02:44:41.247Z,100618.62
2019-04-25T02:47:16.338Z,100615.59
2019-04-25T02:50:09.073Z,100624.30
2019-04-25T02:52:39.559Z,100620.95
2019-04-25T02:55:11.093Z,100617.75
2019-04-25T02:57:44.729Z,100617.59
2019-04-25T03:00:45.473Z,100616.75
2019-04-25T03:03:01.210Z,100625.27
2019-04-25T03:05:32.029Z,100621.78
2019-04-25T03:08:07.943Z,100614.56
2019-04-25T03:10:35.227Z,100619.75
2019-04-25T03:13:12.020Z,100616.42
2019-04-25T03:15:45.190Z,100618.77
2019-04-25T03:18:17.092Z,100621.14
2019-04-25T03:20:49.250Z,100617.12
2019-04-25T03:23:35.405Z,100624.66
2019-04-25T03:26:07.406Z,100629.87
2019-04-25T03:28:38.221Z,100626.02
2019-04-25T03:31:15.187Z,100628.86
2019-04-25T03:33:41.271Z,100623.17
2019-04-25T03:36:14.252Z,100621.66
2019-04-25T03:38:44.343Z,100628.86
2019-04-25T03:41:15.451Z,100631.05
2019-04-25T03:43:46.083Z,100637.03
2019-04-25T03:46:16.714Z,100632.24
2019-04-25T03:48:47.545Z,100629.49
2019-04-25T03:51:18.278Z,100634.97
2019-04-25T03:53:49.035Z,100628.22
2019-04-25T03:56:19.955Z,100632.69
2019-04-25T03:58:54.051Z,100623.16
2019-04-25T04:01:25.630Z,100627.58
2019-04-25T04:03:59.000Z,100631.76
2019-04-25T04:06:29.684Z,100631.71
2019-04-25T04:09:04.663Z,100628.73
2019-04-25T04:11:39.130Z,100631.58
2019-04-25T04:14:18.043Z,100640.44
2019-04-25T04:17:06.478Z,100637.27
2019-04-25T04:19:39.312Z,100643.75
2019-04-25T04:22:21.457Z,100636.95
2019-04-25T04:24:57.354Z,100641.11
2019-04-25T04:27:27.969Z,100645.55
2019-04-25T04:30:01.808Z,100646.52
2019-04-25T04:32:34.774Z,100644.59
2019-04-25T04:35:07.309Z,100640.11
2019-04-25T04:37:39.511Z,100644.91
2019-04-25T04:40:10.207Z,100646.02
2019-04-25T04:42:40.810Z,100644.59
2019-04-25T04:45:12.405Z,100637.59
2019-04-25T04:47:43.845Z,100650.11
2019-04-25T04:50:15.405Z,100643.64
2019-04-25T04:52:46.275Z,100639.88
2019-04-25T04:55:19.759Z,100640.00
2019-04-25T04:57:50.594Z,100646.81
2019-04-25T05:00:24.652Z,100641.48
2019-04-25T05:02:57.012Z,100645.03
2019-04-25T05:05:35.645Z,100644.73
2019-04-25T05:08:08.628Z,100640.93
2019-04-25T05:10:39.694Z,100650.34
2019-04-25T05:13:15.761Z,100649.91
2019-04-25T05:15:50.628Z,100648.30
2019-04-25T05:18:34.556Z,100646.45
2019-04-25T05:20:57.593Z,100651.25
2019-04-25T05:23:28.506Z,100649.96
2019-04-25T05:25:59.206Z,100639.98
2019-04-25T05:28:33.344Z,100657.47
2019-04-25T05:31:09.957Z,100647.68
2019-04-25T05:33:40.578Z,100644.25
2019-04-25T05:36:11.636Z,100656.11
2019-04-25T05:38:45.895Z,100641.58
2019-04-25T05:41:21.003Z,100650.02
2019-04-25T05:43:51.795Z,100644.48
2019-04-25T05:46:23.700Z,100644.06
2019-04-25T05:48:56.367Z,100651.36
2019-04-25T05:51:26.925Z,100654.26
2019-04-25T05:53:57.631Z,100647.28
2019-04-25T05:56:28.333Z,100640.27
2019-04-25T05:58:59.149Z,100645.20
2019-04-25T06:01:31.608Z,100640.61
2019-04-25T06:04:05.166Z,100644.17
2019-04-25T06:06:36.769Z,100633.53
2019-04-25T06:09:28.204Z,100643.25
2019-04-25T06:12:15.768Z,100641.23
2019-04-25T06:14:48.026Z,100635.34
2019-04-25T06:17:38.620Z,100633.60
2019-04-25T06:20:13.602Z,100636.84
2019-04-25T06:22:48.812Z,100641.23
2019-04-25T06:25:24.085Z,100633.32
2019-04-25T06:27:57.233Z,100638.70
2019-04-25T06:30:30.494Z,100640.22
2019-04-25T06:33:01.387Z,100640.45
2019-04-25T06:35:35.851Z,100640.91
2019-04-25T06:38:06.829Z,100636.55
2019-04-25T06:40:37.568Z,100646.13
2019-04-25T06:43:08.268Z,100635.59
2019-04-25T06:45:56.628Z,100643.33
2019-04-25T06:48:35.200Z,100646.96
2019-04-25T06:51:08.916Z,100642.59
2019-04-25T06:53:39.635Z,100637.30
2019-04-25T06:56:10.236Z,100637.38
2019-04-25T06:58:40.952Z,100631.33
2019-04-25T07:01:13.475Z,100637.69
2019-04-25T07:03:44.509Z,100639.63
2019-04-25T07:06:15.192Z,100631.06
2019-04-25T07:08:45.941Z,100625.00
2019-04-25T07:11:16.668Z,100631.10
2019-04-25T07:13:47.391Z,100631.12
2019-04-25T07:16:18.065Z,100627.77
2019-04-25T07:18:48.784Z,100639.24
2019-04-25T07:21:19.414Z,100634.63
2019-04-25T07:23:50.207Z,100633.06
2019-04-25T07:26:45.240Z,100631.20
2019-04-25T07:29:24.825Z,100631.41
2019-04-25T07:32:12.162Z,100630.77
2019-04-25T07:34:44.324Z,100640.20
2019-04-25T07:37:16.777Z,100636.48
2019-04-25T07:39:47.368Z,100629.96
2019-04-25T07:42:19.646Z,100631.86
2019-04-25T07:44:53.440Z,100632.37
2019-04-25T07:47:24.756Z,100636.30
2019-04-25T07:49:55.602Z,100634.52
2019-04-25T07:52:27.074Z,100634.32
2019-04-25T07:54:57.857Z,100627.38
2019-04-25T07:57:29.149Z,100630.75
2019-04-25T07:59:59.948Z,100621.44
2019-04-25T08:02:30.632Z,100630.42
2019-04-25T08:05:04.269Z,100631.42
2019-04-25T08:07:36.032Z,100626.89
2019-04-25T08:10:09.220Z,100624.80
2019-04-25T08:12:40.475Z,100628.84
2019-04-25T08:15:15.653Z,100621.39
2019-04-25T08:17:56.645Z,100624.22
2019-04-25T08:20:28.427Z,100620.66
2019-04-25T08:23:01.929Z,100612.16
2019-04-25T08:25:33.457Z,100614.86
2019-04-25T08:28:05.133Z,100615.67
2019-04-25T08:30:36.757Z,100615.70
2019-04-25T08:33:08.191Z,100610.70
2019-04-25T08:35:42.570Z,100605.95
2019-04-25T08:38:13.995Z,100609.22
2019-04-25T08:40:44.727Z,100605.41
2019-04-25T08:43:15.351Z,100605.28
2019-04-25T08:45:46.079Z,100598.45
2019-04-25T08:48:19.408Z,100592.08
2019-04-25T08:51:08.990Z,100596.83
2019-04-25T08:53:47.140Z,100602.00
2019-04-25T08:56:22.097Z,100590.05
2019-04-25T08:59:05.481Z,100590.16
2019-04-25T09:01:48.905Z,100585.98
2019-04-25T09:04:21.273Z,100583.94
2019-04-25T09:06:54.990Z,100580.47
2019-04-25T09:09:25.740Z,100574.88
2019-04-25T09:11:56.597Z,100572.37
2019-04-25T09:14:27.534Z,100574.64
2019-04-25T09:16:59.606Z,100563.70
2019-04-25T09:19:36.202Z,100570.94
2019-04-25T09:22:07.571Z,100566.41
2019-04-25T09:24:45.371Z,100555.17
2019-04-25T09:27:16.162Z,100560.14
2019-04-25T09:29:47.557Z,100563.23
2019-04-25T09:32:18.310Z,100556.00
2019-04-25T09:34:48.955Z,100552.89
2019-04-25T09:37:21.668Z,100559.16
2019-04-25T09:40:04.215Z,100550.33
2019-04-25T09:42:36.996Z,100554.84
2019-04-25T09:45:17.052Z,100553.09
2019-04-25T09:47:49.431Z,100546.78
2019-04-25T09:50:40.035Z,100543.02
2019-04-25T09:53:21.885Z,100538.94
2019-04-25T09:55:48.298Z,100537.23
2019-04-25T09:58:29.647Z,100543.11
2019-04-25T10:01:02.098Z,100536.85
2019-04-25T10:03:33.402Z,100535.29
2019-04-25T10:06:04.389Z,100533.06
2019-04-25T10:08:34.977Z,100535.27
2019-04-25T10:11:06.368Z,100528.86
2019-04-25T10:13:37.594Z,100534.36
2019-04-25T10:16:13.093Z,100524.24
2019-04-25T10:18:44.710Z,100525.50
2019-04-25T10:21:16.387Z,100517.94
2019-04-25T10:23:47.031Z,100513.16
2019-04-25T10:26:19.615Z,100511.45
2019-04-25T10:28:50.451Z,100499.59
2019-04-25T10:31:21.074Z,100499.92
2019-04-25T10:33:53.469Z,100507.30
2019-04-25T10:36:24.715Z,100505.61
2019-04-25T10:39:07.671Z,100504.94
2019-04-25T10:41:27.821Z,100502.74
2019-04-25T10:43:58.458Z,100496.21
2019-04-25T10:46:29.727Z,100497.71
2019-04-25T10:49:00.462Z,100497.38
2019-04-25T10:51:31.079Z,100502.83
2019-04-25T10:54:01.804Z,100498.28
2019-04-25T10:56:33.514Z,100488.33
2019-04-25T10:59:04.594Z,100491.47
2019-04-25T11:01:35.662Z,100493.95
2019-04-25T11:04:08.607Z,100487.86
2019-04-25T11:06:39.260Z,100486.89
2019-04-25T11:09:13.800Z,100482.70
2019-04-25T11:11:44.426Z,100481.34
2019-04-25T11:14:15.174Z,100482.96
2019-04-25T11:16:46.676Z,100474.76
2019-04-25T11:19:17.648Z,100474.23
2019-04-25T11:21:48.327Z,100476.53
2019-04-25T11:24:18.980Z,100473.98
2019-04-25T11:26:51.440Z,100477.70
2019-04-25T11:29:23.964Z,100471.25
2019-04-25T11:31:55.066Z,100465.46
2019-04-25T11:34:26.013Z,100464.88
2019-04-25T11:36:57.670Z,100463.81
2019-04-25T11:39:33.031Z,100468.00
2019-04-25T11:42:04.451Z,100466.34
2019-04-25T11:44:35.219Z,100460.55
2019-04-25T11:47:07.583Z,100454.67
2019-04-25T11:49:38.482Z,100446.50
2019-04-25T11:52:10.343Z,100455.75
2019-04-25T11:54:41.144Z,100446.02
2019-04-25T11:57:11.744Z,100440.90
2019-04-25T11:59:44.597Z,100439.15
2019-04-25T12:02:14.824Z,100438.02
2019-04-25T12:04:47.748Z,100441.70
2019-04-25T12:07:18.543Z,100436.80
2019-04-25T12:09:49.960Z,100435.20
2019-04-25T12:12:20.835Z,100431.13
2019-04-25T12:14:54.993Z,100424.89
2019-04-25T12:17:27.064Z,100420.08
2019-04-25T12:19:57.845Z,100419.67
2019-04-25T12:22:28.486Z,100428.63
2019-04-25T12:25:00.588Z,100418.56
2019-04-25T12:27:31.164Z,100421.41
2019-04-25T12:30:03.838Z,100416.34
2019-04-25T12:32:35.286Z,100416.11
2019-04-25T12:35:07.317Z,100406.98
2019-04-25T12:37:37.947Z,100409.51
2019-04-25T12:40:10.591Z,100404.25
2019-04-25T12:42:41.334Z,100409.87
2019-04-25T12:45:20.965Z,100406.05
2019-04-25T12:47:59.435Z,100401.24
2019-04-25T12:50:30.229Z,100400.03
2019-04-25T12:53:00.961Z,100396.75
2019-04-25T12:55:31.690Z,100395.48
2019-04-25T12:58:03.507Z,100391.99
2019-04-25T13:00:47.873Z,100387.78
2019-04-25T13:03:14.705Z,100384.86
2019-04-25T13:05:45.295Z,100387.17
2019-04-25T13:08:20.264Z,100386.77
2019-04-25T13:10:50.933Z,100378.46
2019-04-25T13:13:24.713Z,100381.80
2019-04-25T13:15:56.748Z,100384.40
2019-04-25T13:18:30.353Z,100376.61
2019-04-25T13:21:03.764Z,100377.94
2019-04-25T13:23:36.199Z,100375.53
2019-04-25T13:26:07.250Z,100372.77
2019-04-25T13:28:57.711Z,100373.30
2019-04-25T13:31:49.964Z,100369.50
2019-04-25T13:34:35.211Z,100367.67
2019-04-25T13:36:54.691Z,100360.96
2019-04-25T13:39:26.510Z,100360.55
2019-04-25T13:41:59.607Z,100357.40
2019-04-25T13:44:30.538Z,100354.04
2019-04-25T13:47:04.083Z,100356.06
2019-04-25T13:49:34.992Z,100354.90
2019-04-25T13:52:09.083Z,100349.73
2019-04-25T13:54:39.767Z,100349.03
2019-04-25T13:57:10.459Z,100348.90
2019-04-25T13:59:45.875Z,100346.70
2019-04-25T14:02:16.893Z,100340.18
2019-04-25T14:04:50.316Z,100338.41
2019-04-25T14:07:21.847Z,100335.94
2019-04-25T14:09:53.223Z,100337.45
2019-04-25T14:12:26.850Z,100340.22
2019-04-25T14:14:59.403Z,100331.80
2019-04-25T14:17:38.197Z,100335.53
2019-04-25T14:20:24.871Z,100333.34
2019-04-25T14:22:55.543Z,100329.19
2019-04-25T14:25:27.658Z,100326.55
2019-04-25T14:28:00.672Z,100327.06
2019-04-25T14:30:32.617Z,100320.80
2019-04-25T14:33:04.280Z,100321.28
2019-04-25T14:35:35.055Z,100321.70
2019-04-25T14:38:08.967Z,100324.48
2019-04-25T14:40:42.171Z,100320.69
2019-04-25T14:43:12.314Z,100318.91
2019-04-25T14:45:45.098Z,100313.70
2019-04-25T14:48:15.471Z,100308.55
2019-04-25T14:50:47.579Z,100309.81
2019-04-25T14:53:18.344Z,100305.13
2019-04-25T14:56:06.932Z,100308.84
2019-04-25T14:58:39.543Z,100301.38
2019-04-25T15:02:06.963Z,100299.13
2019-04-25T15:04:40.737Z,100298.08
2019-04-25T15:07:13.266Z,100303.19
2019-04-25T15:09:45.701Z,100291.80
2019-04-25T15:12:17.363Z,100287.77
2019-04-25T15:14:48.213Z,100292.97
2019-04-25T15:17:18.943Z,100286.67
2019-04-25T15:19:49.961Z,100290.51
2019-04-25T15:22:21.715Z,100289.76
2019-04-25T15:24:52.576Z,100283.20
2019-04-25T15:27:24.100Z,100281.41
2019-04-25T15:29:55.666Z,100282.65
2019-04-25T15:32:31.215Z,100280.45
2019-04-25T15:35:06.210Z,100284.84
2019-04-25T15:37:45.277Z,100285.98
2019-04-25T15:40:25.256Z,100286.02
2019-04-25T15:43:17.071Z,100288.05
2019-04-25T15:46:07.192Z,100278.03
2019-04-25T15:48:40.871Z,100279.77
2019-04-25T15:51:14.351Z,100279.03
2019-04-25T15:53:45.000Z,100279.50
2019-04-25T15:56:15.658Z,100274.37
2019-04-25T15:58:49.501Z,100274.46
2019-04-25T16:01:23.114Z,100268.48
2019-04-25T16:03:54.266Z,100271.34
2019-04-25T16:06:25.549Z,100273.08
2019-04-25T16:08:59.280Z,100272.02
2019-04-25T16:11:33.458Z,100270.66
2019-04-25T16:14:04.910Z,100277.26
2019-04-25T16:16:35.957Z,100273.89
2019-04-25T16:19:06.624Z,100275.19
2019-04-25T16:21:38.931Z,100274.40
2019-04-25T16:24:12.849Z,100275.13
2019-04-25T16:26:43.661Z,100270.89
2019-04-25T16:29:15.907Z,100270.27
2019-04-25T16:31:49.421Z,100271.70
2019-04-25T16:34:21.650Z,100270.45
2019-04-25T16:36:57.208Z,100266.78
2019-04-25T16:39:30.935Z,100267.80
2019-04-25T16:42:05.973Z,100274.58
2019-04-25T16:44:40.162Z,100275.06
2019-04-25T16:47:31.205Z,100263.02
2019-04-25T16:50:02.005Z,100262.88
2019-04-25T16:52:33.842Z,100272.33
2019-04-25T16:55:09.273Z,100273.50
2019-04-25T16:57:42.135Z,100273.02
2019-04-25T17:00:30.890Z,100278.14
2019-04-25T17:03:04.657Z,100279.48
2019-04-25T17:05:35.832Z,100277.70
2019-04-25T17:08:10.118Z,100280.74
2019-04-25T17:10:46.348Z,100285.31
2019-04-25T17:13:20.225Z,100286.09
2019-04-25T17:16:04.441Z,100286.80
2019-04-25T17:18:42.353Z,100285.14
2019-04-25T17:21:15.722Z,100288.41
2019-04-25T17:23:47.964Z,100290.78
2019-04-25T17:26:19.494Z,100294.12
2019-04-25T17:28:56.272Z,100295.48
2019-04-25T17:31:48.532Z,100300.67
2019-04-25T17:34:21.540Z,100300.89
2019-04-25T17:36:53.998Z,100304.73
2019-04-25T17:39:26.678Z,100306.01
2019-04-25T17:42:01.393Z,100309.56
2019-04-25T17:44:34.190Z,100311.56
2019-04-25T17:47:06.582Z,100313.31
2019-04-25T17:49:37.449Z,100317.36
2019-04-25T17:52:09.516Z,100314.02
2019-04-25T17:54:41.037Z,100320.12
2019-04-25T17:57:11.825Z,100327.23
2019-04-25T17:59:43.397Z,100325.83
2019-04-25T18:02:14.320Z,100316.18
2019-04-25T18:04:46.627Z,100329.73
2019-04-25T18:07:18.820Z,100322.98
2019-04-25T18:09:49.530Z,100324.89
2019-04-25T18:12:23.605Z,100326.99
2019-04-25T18:14:55.974Z,100324.09
2019-04-25T18:17:26.673Z,100321.73
2019-04-25T18:20:02.020Z,100316.95
2019-04-25T18:22:46.288Z,100322.72
2019-04-25T18:25:37.353Z,100323.53
2019-04-25T18:28:15.510Z,100323.25
2019-04-25T18:30:46.930Z,100323.39
2019-04-25T18:33:19.287Z,100320.80
2019-04-25T18:35:51.720Z,100322.69
2019-04-25T18:38:27.061Z,100315.50
2019-04-25T18:41:11.639Z,100324.28
2019-04-25T18:43:44.866Z,100320.09
2019-04-25T18:46:23.632Z,100313.20
2019-04-25T18:48:56.900Z,100318.64
2019-04-25T18:51:29.486Z,100322.47
2019-04-25T18:54:32.590Z,100321.34
2019-04-25T18:57:14.329Z,100316.44
2019-04-25T19:00:00.375Z,100311.29
2019-04-25T19:02:43.915Z,100313.66
2019-04-25T19:05:34.012Z,100315.34
2019-04-25T19:08:09.986Z,100309.75
2019-04-25T19:11:00.196Z,100312.76
2019-04-25T19:13:38.812Z,100306.36
2019-04-25T19:16:28.718Z,100313.11
2019-04-25T19:19:00.875Z,100308.45
2019-04-25T19:21:49.936Z,100309.70
2019-04-25T19:24:40.330Z,100305.50
2019-04-25T19:27:23.890Z,100309.60
2019-04-25T19:29:53.697Z,100306.26
2019-04-25T19:32:26.774Z,100303.64
2019-04-25T19:35:02.742Z,100305.10
2019-04-25T19:37:36.050Z,100308.24
2019-04-25T19:40:19.364Z,100308.14
2019-04-25T19:43:18.176Z,100303.05
2019-04-25T19:45:53.441Z,100299.47
2019-04-25T19:48:44.836Z,100298.34
2019-04-25T19:51:18.183Z,100292.83
2019-04-25T19:53:51.965Z,100295.66
2019-04-25T19:56:25.785Z,100293.53
2019-04-25T19:59:17.534Z,100289.24
2019-04-25T20:01:54.823Z,100292.39
2019-04-25T20:04:35.578Z,100295.95
2019-04-25T20:07:17.510Z,100288.91
2019-04-25T20:10:09.326Z,100290.23
2019-04-25T20:12:51.314Z,100283.68
2019-04-25T20:15:19.729Z,100291.55
2019-04-25T20:17:54.281Z,100284.25
2019-04-25T20:20:31.996Z,100290.39
2019-04-25T20:23:22.569Z,100287.50
2019-04-25T20:26:03.541Z,100287.14
2019-04-25T20:28:42.386Z,100287.19
2019-04-25T20:31:14.979Z,100285.94
2019-04-25T20:34:03.178Z,100291.08
2019-04-25T20:36:27.269Z,100284.89
2019-04-25T20:39:02.909Z,100284.34
2019-04-25T20:41:37.679Z,100287.98
2019-04-25T20:44:09.964Z,100287.54
2019-04-25T20:46:50.531Z,100285.48
2019-04-25T20:49:35.207Z,100296.67
2019-04-25T20:52:12.734Z,100287.39
2019-04-25T20:54:47.505Z,100292.58
2019-04-25T20:57:18.140Z,100287.48
2019-04-25T20:59:52.179Z,100290.79
2019-04-25T21:02:23.873Z,100286.34
2019-04-25T21:04:54.511Z,100292.89
2019-04-25T21:07:26.287Z,100289.29
2019-04-25T21:10:01.135Z,100287.87
2019-04-25T21:12:35.139Z,100288.09
2019-04-25T21:15:25.671Z,100288.13
2019-04-25T21:17:58.872Z,100292.19
2019-04-25T21:20:30.958Z,100292.89
2019-04-25T21:23:05.760Z,100290.41
2019-04-25T21:25:36.536Z,100287.77
2019-04-25T21:28:09.466Z,100289.55
2019-04-25T21:30:42.935Z,100291.27
2019-04-25T21:33:14.018Z,100287.84
2019-04-25T21:35:44.889Z,100292.19
2019-04-25T21:38:18.241Z,100292.31
2019-04-25T21:40:55.735Z,100293.05
2019-04-25T21:43:28.306Z,100288.91
2019-04-25T21:46:00.616Z,100294.44
2019-04-25T21:48:34.929Z,100292.83
2019-04-25T21:51:25.432Z,100296.23
2019-04-25T21:53:57.659Z,100300.30
2019-04-25T21:56:32.276Z,100292.58
2019-04-25T21:59:04.139Z,100293.56
2019-04-25T22:01:40.621Z,100298.98
2019-04-25T22:04:19.330Z,100305.37
2019-04-25T22:06:52.578Z,100298.53
2019-04-25T22:09:28.732Z,100295.98
2019-04-25T22:12:01.152Z,100297.30
2019-04-25T22:14:32.974Z,100293.56
2019-04-25T22:17:06.923Z,100296.45
2019-04-25T22:19:42.442Z,100294.60
2019-04-25T22:22:14.411Z,100295.05
2019-04-25T22:24:45.108Z,100294.45
2019-04-25T22:27:18.949Z,100294.67
2019-04-25T22:29:51.691Z,100291.81
2019-04-25T22:32:25.414Z,100290.61
2019-04-25T22:35:13.209Z,100286.88
2019-04-25T22:37:45.708Z,100292.27
2019-04-25T22:40:16.357Z,100288.45
2019-04-25T22:42:48.680Z,100288.98
2019-04-25T22:45:21.870Z,100289.16
2019-04-25T22:47:53.838Z,100289.10
2019-04-25T22:50:24.811Z,100290.00
2019-04-25T22:52:55.568Z,100286.16
2019-04-25T22:55:29.053Z,100293.39
2019-04-25T22:57:59.775Z,100293.00
2019-04-25T23:00:35.244Z,100292.89
2019-04-25T23:03:07.717Z,100290.84
2019-04-25T23:05:43.200Z,100288.34
2019-04-25T23:08:14.297Z,100284.89
2019-04-25T23:10:45.502Z,100284.09
2019-04-25T23:13:16.151Z,100284.05
2019-04-25T23:15:46.801Z,100281.19
2019-04-25T23:18:18.252Z,100282.11
2019-04-25T23:20:48.987Z,100280.51
2019-04-25T23:23:20.147Z,100281.20
2019-04-25T23:25:55.631Z,100275.06
2019-04-25T23:28:38.814Z,100285.45
2019-04-25T23:31:12.564Z,100278.34
2019-04-25T23:33:46.330Z,100277.20
2019-04-25T23:36:20.422Z,100275.09
2019-04-25T23:38:54.369Z,100272.78
2019-04-25T23:41:28.278Z,100275.63
2019-04-25T23:44:00.641Z,100267.45
2019-04-25T23:46:33.891Z,100269.86
2019-04-25T23:49:07.792Z,100271.33
2019-04-25T23:51:43.908Z,100271.08
2019-04-25T23:54:15.948Z,100267.70
2019-04-25T23:56:47.617Z,100264.81
2019-04-25T23:59:21.473Z,100264.50
